sensor_id;sensor_type;location;lat;lon;timestamp;temperature;humidity
6948;DHT22;3513;47.664;9.162;2023-04-06T00:00:48;2.40;77.60
6948;DHT22;3513;47.664;9.162;2023-04-06T00:03:14;2.40;78.60
6948;DHT22;3513;47.664;9.162;2023-04-06T00:05:41;2.40;79.10
6948;DHT22;3513;47.664;9.162;2023-04-06T00:08:06;2.40;79.40
6948;DHT22;3513;47.664;9.162;2023-04-06T00:10:32;2.30;79.80
6948;DHT22;3513;47.664;9.162;2023-04-06T00:12:59;2.30;80.10
6948;DHT22;3513;47.664;9.162;2023-04-06T00:15:25;2.40;81.40
6948;DHT22;3513;47.664;9.162;2023-04-06T00:17:51;2.50;80.90
6948;DHT22;3513;47.664;9.162;2023-04-06T00:20:17;2.40;80.30
6948;DHT22;3513;47.664;9.162;2023-04-06T00:22:43;2.30;80.10
6948;DHT22;3513;47.664;9.162;2023-04-06T00:25:09;2.30;80.90
6948;DHT22;3513;47.664;9.162;2023-04-06T00:27:38;2.40;81.90
6948;DHT22;3513;47.664;9.162;2023-04-06T00:30:04;2.40;80.20
6948;DHT22;3513;47.664;9.162;2023-04-06T00:32:31;2.30;79.70
6948;DHT22;3513;47.664;9.162;2023-04-06T00:34:57;2.00;80.00
6948;DHT22;3513;47.664;9.162;2023-04-06T00:37:23;1.90;80.90
6948;DHT22;3513;47.664;9.162;2023-04-06T00:39:48;1.80;81.70
6948;DHT22;3513;47.664;9.162;2023-04-06T00:42:17;1.70;82.10
6948;DHT22;3513;47.664;9.162;2023-04-06T00:44:43;1.80;82.60
6948;DHT22;3513;47.664;9.162;2023-04-06T00:47:09;1.70;82.50
6948;DHT22;3513;47.664;9.162;2023-04-06T00:49:35;1.70;82.30
6948;DHT22;3513;47.664;9.162;2023-04-06T00:52:01;1.70;82.90
6948;DHT22;3513;47.664;9.162;2023-04-06T00:54:28;1.80;83.30
6948;DHT22;3513;47.664;9.162;2023-04-06T00:56:54;1.70;82.90
6948;DHT22;3513;47.664;9.162;2023-04-06T00:59:20;1.60;82.50
6948;DHT22;3513;47.664;9.162;2023-04-06T01:01:46;1.60;82.60
6948;DHT22;3513;47.664;9.162;2023-04-06T01:04:11;1.60;82.90
6948;DHT22;3513;47.664;9.162;2023-04-06T01:06:37;1.60;83.10
6948;DHT22;3513;47.664;9.162;2023-04-06T01:09:03;1.60;83.10
6948;DHT22;3513;47.664;9.162;2023-04-06T01:11:28;1.60;83.30
6948;DHT22;3513;47.664;9.162;2023-04-06T01:13:54;1.60;83.80
6948;DHT22;3513;47.664;9.162;2023-04-06T01:16:20;1.60;83.90
6948;DHT22;3513;47.664;9.162;2023-04-06T01:18:46;1.50;83.90
6948;DHT22;3513;47.664;9.162;2023-04-06T01:21:11;1.40;84.10
6948;DHT22;3513;47.664;9.162;2023-04-06T01:23:43;1.50;84.80
6948;DHT22;3513;47.664;9.162;2023-04-06T01:26:10;1.70;85.70
6948;DHT22;3513;47.664;9.162;2023-04-06T01:28:36;1.80;84.10
6948;DHT22;3513;47.664;9.162;2023-04-06T01:31:03;1.80;82.80
6948;DHT22;3513;47.664;9.162;2023-04-06T01:33:28;1.70;81.00
6948;DHT22;3513;47.664;9.162;2023-04-06T01:35:54;1.50;80.90
6948;DHT22;3513;47.664;9.162;2023-04-06T01:38:20;1.20;81.40
6948;DHT22;3513;47.664;9.162;2023-04-06T01:40:45;1.10;82.60
6948;DHT22;3513;47.664;9.162;2023-04-06T01:43:11;1.10;83.50
6948;DHT22;3513;47.664;9.162;2023-04-06T01:45:37;1.00;83.80
6948;DHT22;3513;47.664;9.162;2023-04-06T01:48:03;1.00;83.70
6948;DHT22;3513;47.664;9.162;2023-04-06T01:50:29;1.00;84.00
6948;DHT22;3513;47.664;9.162;2023-04-06T01:52:55;0.90;84.20
6948;DHT22;3513;47.664;9.162;2023-04-06T01:55:21;0.90;84.60
6948;DHT22;3513;47.664;9.162;2023-04-06T01:57:46;0.80;85.10
6948;DHT22;3513;47.664;9.162;2023-04-06T02:00:12;0.70;85.40
6948;DHT22;3513;47.664;9.162;2023-04-06T02:02:41;0.80;86.70
6948;DHT22;3513;47.664;9.162;2023-04-06T02:05:08;0.80;86.50
6948;DHT22;3513;47.664;9.162;2023-04-06T02:07:34;0.80;85.40
6948;DHT22;3513;47.664;9.162;2023-04-06T02:09:59;0.70;85.00
6948;DHT22;3513;47.664;9.162;2023-04-06T02:12:25;0.80;85.40
6948;DHT22;3513;47.664;9.162;2023-04-06T02:14:51;0.80;85.80
6948;DHT22;3513;47.664;9.162;2023-04-06T02:17:17;0.80;85.10
6948;DHT22;3513;47.664;9.162;2023-04-06T02:19:42;0.80;85.20
6948;DHT22;3513;47.664;9.162;2023-04-06T02:22:09;0.70;85.10
6948;DHT22;3513;47.664;9.162;2023-04-06T02:24:34;0.90;85.60
6948;DHT22;3513;47.664;9.162;2023-04-06T02:27:01;0.60;85.60
6948;DHT22;3513;47.664;9.162;2023-04-06T02:29:26;0.60;85.50
6948;DHT22;3513;47.664;9.162;2023-04-06T02:31:52;0.60;85.40
6948;DHT22;3513;47.664;9.162;2023-04-06T02:34:17;0.50;85.40
6948;DHT22;3513;47.664;9.162;2023-04-06T02:36:47;0.60;86.50
6948;DHT22;3513;47.664;9.162;2023-04-06T02:39:13;0.60;87.20
6948;DHT22;3513;47.664;9.162;2023-04-06T02:41:39;0.60;87.00
6948;DHT22;3513;47.664;9.162;2023-04-06T02:44:07;0.60;86.50
6948;DHT22;3513;47.664;9.162;2023-04-06T02:46:34;0.50;86.30
6948;DHT22;3513;47.664;9.162;2023-04-06T02:48:59;0.50;86.70
6948;DHT22;3513;47.664;9.162;2023-04-06T02:51:26;0.40;87.30
6948;DHT22;3513;47.664;9.162;2023-04-06T02:53:52;0.40;87.30
6948;DHT22;3513;47.664;9.162;2023-04-06T02:56:18;0.40;87.60
6948;DHT22;3513;47.664;9.162;2023-04-06T02:58:44;0.40;88.00
6948;DHT22;3513;47.664;9.162;2023-04-06T03:01:10;0.30;88.10
6948;DHT22;3513;47.664;9.162;2023-04-06T03:03:35;0.30;88.20
6948;DHT22;3513;47.664;9.162;2023-04-06T03:06:01;0.40;88.60
6948;DHT22;3513;47.664;9.162;2023-04-06T03:08:27;0.20;88.30
6948;DHT22;3513;47.664;9.162;2023-04-06T03:10:52;0.20;88.60
6948;DHT22;3513;47.664;9.162;2023-04-06T03:13:18;0.20;88.70
6948;DHT22;3513;47.664;9.162;2023-04-06T03:15:43;0.20;89.00
6948;DHT22;3513;47.664;9.162;2023-04-06T03:18:09;0.20;89.60
6948;DHT22;3513;47.664;9.162;2023-04-06T03:20:34;0.10;89.70
6948;DHT22;3513;47.664;9.162;2023-04-06T03:23:00;0.10;90.00
6948;DHT22;3513;47.664;9.162;2023-04-06T03:25:26;0.20;90.40
6948;DHT22;3513;47.664;9.162;2023-04-06T03:27:51;0.20;90.60
6948;DHT22;3513;47.664;9.162;2023-04-06T03:30:17;0.20;90.70
6948;DHT22;3513;47.664;9.162;2023-04-06T03:32:43;0.20;90.70
6948;DHT22;3513;47.664;9.162;2023-04-06T03:35:10;0.20;90.70
6948;DHT22;3513;47.664;9.162;2023-04-06T03:37:36;0.10;90.90
6948;DHT22;3513;47.664;9.162;2023-04-06T03:40:02;0.10;90.90
6948;DHT22;3513;47.664;9.162;2023-04-06T03:42:28;0.00;91.00
6948;DHT22;3513;47.664;9.162;2023-04-06T03:44:53;0.00;90.90
6948;DHT22;3513;47.664;9.162;2023-04-06T03:47:19;0.00;91.10
6948;DHT22;3513;47.664;9.162;2023-04-06T03:49:45;0.00;91.00
6948;DHT22;3513;47.664;9.162;2023-04-06T03:52:11;0.00;91.40
6948;DHT22;3513;47.664;9.162;2023-04-06T03:54:36;0.00;91.50
6948;DHT22;3513;47.664;9.162;2023-04-06T03:57:02;-0.10;91.60
6948;DHT22;3513;47.664;9.162;2023-04-06T03:59:28;-0.10;91.30
6948;DHT22;3513;47.664;9.162;2023-04-06T04:01:53;-0.20;91.30
6948;DHT22;3513;47.664;9.162;2023-04-06T04:04:20;-0.20;91.20
6948;DHT22;3513;47.664;9.162;2023-04-06T04:06:46;-0.20;91.20
6948;DHT22;3513;47.664;9.162;2023-04-06T04:09:11;-0.10;91.40
6948;DHT22;3513;47.664;9.162;2023-04-06T04:11:37;-0.20;91.60
6948;DHT22;3513;47.664;9.162;2023-04-06T04:14:03;-0.20;91.70
6948;DHT22;3513;47.664;9.162;2023-04-06T04:16:29;-0.20;91.80
6948;DHT22;3513;47.664;9.162;2023-04-06T04:18:54;-0.20;91.90
6948;DHT22;3513;47.664;9.162;2023-04-06T04:21:21;-0.20;92.00
6948;DHT22;3513;47.664;9.162;2023-04-06T04:23:47;-0.20;92.10
6948;DHT22;3513;47.664;9.162;2023-04-06T04:26:12;-0.20;92.20
6948;DHT22;3513;47.664;9.162;2023-04-06T04:28:38;-0.30;92.30
6948;DHT22;3513;47.664;9.162;2023-04-06T04:31:03;-1.40;92.00
6948;DHT22;3513;47.664;9.162;2023-04-06T04:33:29;-0.30;92.70
6948;DHT22;3513;47.664;9.162;2023-04-06T04:35:55;-0.30;92.90
6948;DHT22;3513;47.664;9.162;2023-04-06T04:38:21;-0.30;93.10
6948;DHT22;3513;47.664;9.162;2023-04-06T04:40:46;-0.40;93.00
6948;DHT22;3513;47.664;9.162;2023-04-06T04:43:12;-0.40;93.00
6948;DHT22;3513;47.664;9.162;2023-04-06T04:45:37;-0.50;93.20
6948;DHT22;3513;47.664;9.162;2023-04-06T04:48:03;-0.40;93.50
6948;DHT22;3513;47.664;9.162;2023-04-06T04:50:30;-0.40;93.90
6948;DHT22;3513;47.664;9.162;2023-04-06T04:52:56;-0.40;94.10
6948;DHT22;3513;47.664;9.162;2023-04-06T04:55:21;-0.30;94.30
6948;DHT22;3513;47.664;9.162;2023-04-06T04:57:47;-0.30;94.60
6948;DHT22;3513;47.664;9.162;2023-04-06T05:00:13;-0.20;94.80
6948;DHT22;3513;47.664;9.162;2023-04-06T05:02:39;-0.20;94.90
6948;DHT22;3513;47.664;9.162;2023-04-06T05:05:05;-0.20;95.20
6948;DHT22;3513;47.664;9.162;2023-04-06T05:07:30;-0.20;95.40
6948;DHT22;3513;47.664;9.162;2023-04-06T05:09:56;-0.10;95.60
6948;DHT22;3513;47.664;9.162;2023-04-06T05:12:22;0.00;95.80
6948;DHT22;3513;47.664;9.162;2023-04-06T05:14:48;-0.10;95.60
6948;DHT22;3513;47.664;9.162;2023-04-06T05:17:13;-0.10;95.50
6948;DHT22;3513;47.664;9.162;2023-04-06T05:19:39;0.00;95.30
6948;DHT22;3513;47.664;9.162;2023-04-06T05:22:05;0.00;95.20
6948;DHT22;3513;47.664;9.162;2023-04-06T05:24:30;0.00;95.00
6948;DHT22;3513;47.664;9.162;2023-04-06T05:26:56;0.10;95.00
6948;DHT22;3513;47.664;9.162;2023-04-06T05:29:21;0.20;94.70
6948;DHT22;3513;47.664;9.162;2023-04-06T05:31:47;0.10;94.50
6948;DHT22;3513;47.664;9.162;2023-04-06T05:34:13;0.20;94.60
6948;DHT22;3513;47.664;9.162;2023-04-06T05:36:39;0.20;94.80
6948;DHT22;3513;47.664;9.162;2023-04-06T05:39:05;0.20;94.90
6948;DHT22;3513;47.664;9.162;2023-04-06T05:41:32;0.30;95.00
6948;DHT22;3513;47.664;9.162;2023-04-06T05:43:57;0.40;95.40
6948;DHT22;3513;47.664;9.162;2023-04-06T05:46:23;0.40;95.50
6948;DHT22;3513;47.664;9.162;2023-04-06T05:48:48;0.60;95.50
6948;DHT22;3513;47.664;9.162;2023-04-06T05:51:14;0.60;95.20
6948;DHT22;3513;47.664;9.162;2023-04-06T05:53:40;0.70;95.20
6948;DHT22;3513;47.664;9.162;2023-04-06T05:56:05;0.80;95.30
6948;DHT22;3513;47.664;9.162;2023-04-06T05:58:31;0.80;95.20
6948;DHT22;3513;47.664;9.162;2023-04-06T06:00:58;0.90;95.10
6948;DHT22;3513;47.664;9.162;2023-04-06T06:03:24;1.00;94.90
6948;DHT22;3513;47.664;9.162;2023-04-06T06:05:50;1.00;95.00
6948;DHT22;3513;47.664;9.162;2023-04-06T06:08:16;1.10;95.20
6948;DHT22;3513;47.664;9.162;2023-04-06T06:10:41;1.20;95.20
6948;DHT22;3513;47.664;9.162;2023-04-06T06:13:07;1.30;95.30
6948;DHT22;3513;47.664;9.162;2023-04-06T06:15:33;1.30;95.30
6948;DHT22;3513;47.664;9.162;2023-04-06T06:17:58;1.50;95.60
6948;DHT22;3513;47.664;9.162;2023-04-06T06:20:24;1.60;96.20
6948;DHT22;3513;47.664;9.162;2023-04-06T06:22:50;1.70;96.10
6948;DHT22;3513;47.664;9.162;2023-04-06T06:25:16;1.80;96.10
6948;DHT22;3513;47.664;9.162;2023-04-06T06:27:41;1.80;96.10
6948;DHT22;3513;47.664;9.162;2023-04-06T06:30:08;1.90;96.30
6948;DHT22;3513;47.664;9.162;2023-04-06T06:32:33;1.90;96.40
6948;DHT22;3513;47.664;9.162;2023-04-06T06:34:59;2.00;96.50
6948;DHT22;3513;47.664;9.162;2023-04-06T06:37:25;2.10;96.40
6948;DHT22;3513;47.664;9.162;2023-04-06T06:39:50;2.20;96.30
6948;DHT22;3513;47.664;9.162;2023-04-06T06:42:16;2.30;96.10
6948;DHT22;3513;47.664;9.162;2023-04-06T06:44:41;2.30;96.20
6948;DHT22;3513;47.664;9.162;2023-04-06T06:47:07;2.50;96.30
6948;DHT22;3513;47.664;9.162;2023-04-06T06:49:33;2.70;96.00
6948;DHT22;3513;47.664;9.162;2023-04-06T06:51:58;2.80;95.10
6948;DHT22;3513;47.664;9.162;2023-04-06T06:54:24;2.80;95.30
6948;DHT22;3513;47.664;9.162;2023-04-06T06:56:50;2.90;95.40
6948;DHT22;3513;47.664;9.162;2023-04-06T06:59:15;3.00;95.10
6948;DHT22;3513;47.664;9.162;2023-04-06T07:01:42;3.00;94.60
6948;DHT22;3513;47.664;9.162;2023-04-06T07:04:07;3.20;94.80
6948;DHT22;3513;47.664;9.162;2023-04-06T07:06:35;3.20;94.50
6948;DHT22;3513;47.664;9.162;2023-04-06T07:09:02;3.10;94.30
6948;DHT22;3513;47.664;9.162;2023-04-06T07:11:29;3.20;94.70
6948;DHT22;3513;47.664;9.162;2023-04-06T07:13:55;3.30;94.40
6948;DHT22;3513;47.664;9.162;2023-04-06T07:16:20;3.30;94.00
6948;DHT22;3513;47.664;9.162;2023-04-06T07:18:46;3.30;93.70
6948;DHT22;3513;47.664;9.162;2023-04-06T07:21:12;3.30;93.80
6948;DHT22;3513;47.664;9.162;2023-04-06T07:23:38;3.40;93.90
6948;DHT22;3513;47.664;9.162;2023-04-06T07:26:03;3.60;94.00
6948;DHT22;3513;47.664;9.162;2023-04-06T07:28:29;3.60;93.60
6948;DHT22;3513;47.664;9.162;2023-04-06T07:30:55;3.60;93.10
6948;DHT22;3513;47.664;9.162;2023-04-06T07:33:20;3.60;93.30
6948;DHT22;3513;47.664;9.162;2023-04-06T07:35:46;3.70;93.00
6948;DHT22;3513;47.664;9.162;2023-04-06T07:38:12;3.70;92.70
6948;DHT22;3513;47.664;9.162;2023-04-06T07:40:38;3.90;93.00
6948;DHT22;3513;47.664;9.162;2023-04-06T07:43:03;4.00;92.80
6948;DHT22;3513;47.664;9.162;2023-04-06T07:45:29;4.20;92.50
6948;DHT22;3513;47.664;9.162;2023-04-06T07:47:55;4.30;92.00
6948;DHT22;3513;47.664;9.162;2023-04-06T07:50:21;4.40;91.60
6948;DHT22;3513;47.664;9.162;2023-04-06T07:52:46;4.50;91.00
6948;DHT22;3513;47.664;9.162;2023-04-06T07:55:12;4.70;90.20
6948;DHT22;3513;47.664;9.162;2023-04-06T07:57:38;4.80;90.20
6948;DHT22;3513;47.664;9.162;2023-04-06T08:00:05;4.90;90.10
6948;DHT22;3513;47.664;9.162;2023-04-06T08:02:31;5.20;88.20
6948;DHT22;3513;47.664;9.162;2023-04-06T08:04:57;5.30;87.60
6948;DHT22;3513;47.664;9.162;2023-04-06T08:07:23;5.30;85.40
6948;DHT22;3513;47.664;9.162;2023-04-06T08:09:49;5.20;85.40
6948;DHT22;3513;47.664;9.162;2023-04-06T08:12:14;5.30;83.50
6948;DHT22;3513;47.664;9.162;2023-04-06T08:14:40;5.40;84.20
6948;DHT22;3513;47.664;9.162;2023-04-06T08:17:06;5.50;80.90
6948;DHT22;3513;47.664;9.162;2023-04-06T08:19:31;5.60;76.80
6948;DHT22;3513;47.664;9.162;2023-04-06T08:21:57;5.70;75.20
6948;DHT22;3513;47.664;9.162;2023-04-06T08:24:23;5.90;78.70
6948;DHT22;3513;47.664;9.162;2023-04-06T08:26:48;5.90;78.20
6948;DHT22;3513;47.664;9.162;2023-04-06T08:29:14;5.90;77.10
6948;DHT22;3513;47.664;9.162;2023-04-06T08:31:41;6.10;76.70
6948;DHT22;3513;47.664;9.162;2023-04-06T08:34:07;6.20;75.00
6948;DHT22;3513;47.664;9.162;2023-04-06T08:36:32;6.20;73.90
6948;DHT22;3513;47.664;9.162;2023-04-06T08:38:59;6.30;73.90
6948;DHT22;3513;47.664;9.162;2023-04-06T08:41:27;6.30;72.90
6948;DHT22;3513;47.664;9.162;2023-04-06T08:43:57;6.40;71.80
6948;DHT22;3513;47.664;9.162;2023-04-06T08:46:24;6.60;72.00
6948;DHT22;3513;47.664;9.162;2023-04-06T08:48:59;6.60;71.00
6948;DHT22;3513;47.664;9.162;2023-04-06T08:51:26;6.70;72.10
6948;DHT22;3513;47.664;9.162;2023-04-06T08:53:55;6.90;72.20
6948;DHT22;3513;47.664;9.162;2023-04-06T08:56:23;7.00;72.90
6948;DHT22;3513;47.664;9.162;2023-04-06T08:58:49;7.20;72.50
6948;DHT22;3513;47.664;9.162;2023-04-06T09:01:17;7.40;73.00
6948;DHT22;3513;47.664;9.162;2023-04-06T09:03:43;7.50;71.10
6948;DHT22;3513;47.664;9.162;2023-04-06T09:06:10;7.60;70.70
6948;DHT22;3513;47.664;9.162;2023-04-06T09:08:39;7.70;71.10
6948;DHT22;3513;47.664;9.162;2023-04-06T09:11:05;7.90;70.80
6948;DHT22;3513;47.664;9.162;2023-04-06T09:13:32;8.00;70.60
6948;DHT22;3513;47.664;9.162;2023-04-06T09:16:09;8.10;70.70
6948;DHT22;3513;47.664;9.162;2023-04-06T09:18:34;8.30;70.60
6948;DHT22;3513;47.664;9.162;2023-04-06T09:21:05;8.50;70.00
6948;DHT22;3513;47.664;9.162;2023-04-06T09:23:31;8.60;68.00
6948;DHT22;3513;47.664;9.162;2023-04-06T09:28:53;8.80;66.40
6948;DHT22;3513;47.664;9.162;2023-04-06T09:31:31;8.90;65.90
6948;DHT22;3513;47.664;9.162;2023-04-06T09:34:00;9.00;64.50
6948;DHT22;3513;47.664;9.162;2023-04-06T09:36:31;9.00;64.80
6948;DHT22;3513;47.664;9.162;2023-04-06T09:39:00;9.10;63.90
6948;DHT22;3513;47.664;9.162;2023-04-06T09:41:30;9.20;63.20
6948;DHT22;3513;47.664;9.162;2023-04-06T09:44:07;9.20;61.90
6948;DHT22;3513;47.664;9.162;2023-04-06T09:46:35;9.20;61.20
6948;DHT22;3513;47.664;9.162;2023-04-06T09:49:05;9.20;61.30
6948;DHT22;3513;47.664;9.162;2023-04-06T09:51:40;9.40;63.70
6948;DHT22;3513;47.664;9.162;2023-04-06T09:54:07;9.50;63.90
6948;DHT22;3513;47.664;9.162;2023-04-06T09:56:58;9.60;62.40
6948;DHT22;3513;47.664;9.162;2023-04-06T09:59:43;9.60;59.80
6948;DHT22;3513;47.664;9.162;2023-04-06T10:05:00;9.80;59.50
6948;DHT22;3513;47.664;9.162;2023-04-06T10:07:28;9.80;57.20
6948;DHT22;3513;47.664;9.162;2023-04-06T10:09:55;9.80;57.90
6948;DHT22;3513;47.664;9.162;2023-04-06T10:12:21;9.90;58.70
6948;DHT22;3513;47.664;9.162;2023-04-06T10:14:46;10.00;56.60
6948;DHT22;3513;47.664;9.162;2023-04-06T10:17:13;10.10;56.90
6948;DHT22;3513;47.664;9.162;2023-04-06T10:19:52;10.20;55.70
6948;DHT22;3513;47.664;9.162;2023-04-06T10:25:08;10.30;55.60
6948;DHT22;3513;47.664;9.162;2023-04-06T10:27:34;10.30;55.10
6948;DHT22;3513;47.664;9.162;2023-04-06T10:30:05;10.40;56.30
6948;DHT22;3513;47.664;9.162;2023-04-06T10:32:36;10.60;56.60
6948;DHT22;3513;47.664;9.162;2023-04-06T10:35:07;10.60;54.90
6948;DHT22;3513;47.664;9.162;2023-04-06T10:38:02;10.60;54.00
6948;DHT22;3513;47.664;9.162;2023-04-06T10:40:28;10.60;53.40
6948;DHT22;3513;47.664;9.162;2023-04-06T10:42:55;10.70;54.30
6948;DHT22;3513;47.664;9.162;2023-04-06T10:45:25;10.70;53.90
6948;DHT22;3513;47.664;9.162;2023-04-06T10:47:54;10.80;55.30
6948;DHT22;3513;47.664;9.162;2023-04-06T10:50:21;10.90;53.30
6948;DHT22;3513;47.664;9.162;2023-04-06T10:53:01;11.00;51.80
6948;DHT22;3513;47.664;9.162;2023-04-06T10:55:28;11.10;52.50
6948;DHT22;3513;47.664;9.162;2023-04-06T10:57:54;11.20;52.60
6948;DHT22;3513;47.664;9.162;2023-04-06T11:00:20;11.40;53.60
6948;DHT22;3513;47.664;9.162;2023-04-06T11:02:46;11.60;53.80
6948;DHT22;3513;47.664;9.162;2023-04-06T11:05:13;11.60;53.50
6948;DHT22;3513;47.664;9.162;2023-04-06T11:07:39;11.70;52.00
6948;DHT22;3513;47.664;9.162;2023-04-06T11:10:06;11.80;50.90
6948;DHT22;3513;47.664;9.162;2023-04-06T11:12:31;11.80;49.50
6948;DHT22;3513;47.664;9.162;2023-04-06T11:14:59;11.70;49.70
6948;DHT22;3513;47.664;9.162;2023-04-06T11:17:30;11.70;50.50
6948;DHT22;3513;47.664;9.162;2023-04-06T11:19:57;11.80;50.40
6948;DHT22;3513;47.664;9.162;2023-04-06T11:22:23;11.80;45.10
6948;DHT22;3513;47.664;9.162;2023-04-06T11:24:49;11.80;41.80
6948;DHT22;3513;47.664;9.162;2023-04-06T11:27:16;11.70;41.40
6948;DHT22;3513;47.664;9.162;2023-04-06T11:29:43;11.50;42.00
6948;DHT22;3513;47.664;9.162;2023-04-06T11:32:09;11.30;42.00
6948;DHT22;3513;47.664;9.162;2023-04-06T11:34:36;11.40;40.40
6948;DHT22;3513;47.664;9.162;2023-04-06T11:37:03;11.60;40.80
6948;DHT22;3513;47.664;9.162;2023-04-06T11:42:08;11.60;40.20
6948;DHT22;3513;47.664;9.162;2023-04-06T11:44:38;11.50;40.80
6948;DHT22;3513;47.664;9.162;2023-04-06T11:47:06;11.60;41.30
6948;DHT22;3513;47.664;9.162;2023-04-06T11:49:34;11.60;39.70
6948;DHT22;3513;47.664;9.162;2023-04-06T11:52:02;11.60;38.60
6948;DHT22;3513;47.664;9.162;2023-04-06T11:54:35;11.50;37.50
6948;DHT22;3513;47.664;9.162;2023-04-06T11:57:03;11.70;38.60
6948;DHT22;3513;47.664;9.162;2023-04-06T11:59:29;11.80;38.30
6948;DHT22;3513;47.664;9.162;2023-04-06T12:01:57;11.90;36.60
6948;DHT22;3513;47.664;9.162;2023-04-06T12:04:22;12.00;37.60
6948;DHT22;3513;47.664;9.162;2023-04-06T12:06:48;12.20;38.30
6948;DHT22;3513;47.664;9.162;2023-04-06T12:09:14;12.20;36.00
6948;DHT22;3513;47.664;9.162;2023-04-06T12:11:40;12.40;36.00
6948;DHT22;3513;47.664;9.162;2023-04-06T12:14:06;12.40;35.40
6948;DHT22;3513;47.664;9.162;2023-04-06T12:16:33;12.60;35.70
6948;DHT22;3513;47.664;9.162;2023-04-06T12:18:59;12.80;36.00
6948;DHT22;3513;47.664;9.162;2023-04-06T12:21:27;12.80;36.20
6948;DHT22;3513;47.664;9.162;2023-04-06T12:23:53;12.60;35.30
6948;DHT22;3513;47.664;9.162;2023-04-06T12:26:19;12.70;35.40
6948;DHT22;3513;47.664;9.162;2023-04-06T12:28:45;12.90;35.10
6948;DHT22;3513;47.664;9.162;2023-04-06T12:31:18;13.20;35.00
6948;DHT22;3513;47.664;9.162;2023-04-06T12:33:47;13.50;34.90
6948;DHT22;3513;47.664;9.162;2023-04-06T12:36:14;13.50;34.30
6948;DHT22;3513;47.664;9.162;2023-04-06T12:38:41;13.70;32.10
6948;DHT22;3513;47.664;9.162;2023-04-06T12:41:07;13.80;32.20
6948;DHT22;3513;47.664;9.162;2023-04-06T12:43:33;13.70;29.80
6948;DHT22;3513;47.664;9.162;2023-04-06T12:45:59;13.60;30.50
6948;DHT22;3513;47.664;9.162;2023-04-06T12:48:27;13.70;29.40
6948;DHT22;3513;47.664;9.162;2023-04-06T12:51:00;13.90;30.20
6948;DHT22;3513;47.664;9.162;2023-04-06T12:53:27;14.30;30.10
6948;DHT22;3513;47.664;9.162;2023-04-06T12:55:54;14.40;31.20
6948;DHT22;3513;47.664;9.162;2023-04-06T12:58:20;14.70;30.20
6948;DHT22;3513;47.664;9.162;2023-04-06T13:00:49;14.90;29.80
6948;DHT22;3513;47.664;9.162;2023-04-06T13:03:19;15.00;29.30
6948;DHT22;3513;47.664;9.162;2023-04-06T13:05:46;14.90;28.40
6948;DHT22;3513;47.664;9.162;2023-04-06T13:08:13;15.00;28.80
6948;DHT22;3513;47.664;9.162;2023-04-06T13:10:49;15.20;28.50
6948;DHT22;3513;47.664;9.162;2023-04-06T13:13:16;15.40;27.50
6948;DHT22;3513;47.664;9.162;2023-04-06T13:15:42;15.50;26.50
6948;DHT22;3513;47.664;9.162;2023-04-06T13:18:09;15.60;26.20
6948;DHT22;3513;47.664;9.162;2023-04-06T13:20:35;15.60;26.90
6948;DHT22;3513;47.664;9.162;2023-04-06T13:23:01;15.70;28.00
6948;DHT22;3513;47.664;9.162;2023-04-06T13:25:26;15.90;27.60
6948;DHT22;3513;47.664;9.162;2023-04-06T13:27:53;15.90;27.40
6948;DHT22;3513;47.664;9.162;2023-04-06T13:30:19;15.90;27.00
6948;DHT22;3513;47.664;9.162;2023-04-06T13:32:44;16.10;27.30
6948;DHT22;3513;47.664;9.162;2023-04-06T13:35:10;15.80;27.60
6948;DHT22;3513;47.664;9.162;2023-04-06T13:37:37;15.70;27.60
6948;DHT22;3513;47.664;9.162;2023-04-06T13:40:03;15.50;28.10
6948;DHT22;3513;47.664;9.162;2023-04-06T13:42:30;15.40;29.10
6948;DHT22;3513;47.664;9.162;2023-04-06T13:44:56;15.30;29.80
6948;DHT22;3513;47.664;9.162;2023-04-06T13:47:21;15.40;29.00
6948;DHT22;3513;47.664;9.162;2023-04-06T13:49:47;15.40;28.90
6948;DHT22;3513;47.664;9.162;2023-04-06T13:52:13;15.30;28.00
6948;DHT22;3513;47.664;9.162;2023-04-06T13:54:39;15.00;28.00
6948;DHT22;3513;47.664;9.162;2023-04-06T13:57:04;14.90;29.00
6948;DHT22;3513;47.664;9.162;2023-04-06T13:59:36;14.40;29.90
6948;DHT22;3513;47.664;9.162;2023-04-06T14:02:02;14.40;31.10
6948;DHT22;3513;47.664;9.162;2023-04-06T14:04:28;14.40;31.20
6948;DHT22;3513;47.664;9.162;2023-04-06T14:06:54;14.60;31.70
6948;DHT22;3513;47.664;9.162;2023-04-06T14:09:20;14.70;30.40
6948;DHT22;3513;47.664;9.162;2023-04-06T14:11:46;14.90;29.90
6948;DHT22;3513;47.664;9.162;2023-04-06T14:14:11;15.20;30.10
6948;DHT22;3513;47.664;9.162;2023-04-06T14:16:38;15.30;29.50
6948;DHT22;3513;47.664;9.162;2023-04-06T14:19:03;15.50;28.60
6948;DHT22;3513;47.664;9.162;2023-04-06T14:21:29;15.40;27.70
6948;DHT22;3513;47.664;9.162;2023-04-06T14:23:55;15.30;27.60
6948;DHT22;3513;47.664;9.162;2023-04-06T14:26:20;15.30;28.30
6948;DHT22;3513;47.664;9.162;2023-04-06T14:28:46;15.40;28.70
6948;DHT22;3513;47.664;9.162;2023-04-06T14:31:13;15.50;28.60
6948;DHT22;3513;47.664;9.162;2023-04-06T14:33:40;15.40;28.20
6948;DHT22;3513;47.664;9.162;2023-04-06T14:36:07;15.30;28.30
6948;DHT22;3513;47.664;9.162;2023-04-06T14:38:32;15.20;27.90
6948;DHT22;3513;47.664;9.162;2023-04-06T14:40:58;15.40;28.20
6948;DHT22;3513;47.664;9.162;2023-04-06T14:43:24;15.50;28.00
6948;DHT22;3513;47.664;9.162;2023-04-06T14:45:51;15.70;28.30
6948;DHT22;3513;47.664;9.162;2023-04-06T14:48:16;15.70;28.60
6948;DHT22;3513;47.664;9.162;2023-04-06T14:50:55;15.60;28.30
6948;DHT22;3513;47.664;9.162;2023-04-06T14:53:22;15.30;28.60
6948;DHT22;3513;47.664;9.162;2023-04-06T14:55:48;15.20;29.00
6948;DHT22;3513;47.664;9.162;2023-04-06T14:58:17;15.00;29.10
6948;DHT22;3513;47.664;9.162;2023-04-06T15:00:42;15.00;29.30
6948;DHT22;3513;47.664;9.162;2023-04-06T15:03:08;15.00;29.50
6948;DHT22;3513;47.664;9.162;2023-04-06T15:05:34;15.00;29.80
6948;DHT22;3513;47.664;9.162;2023-04-06T15:08:00;15.10;29.30
6948;DHT22;3513;47.664;9.162;2023-04-06T15:10:26;14.90;29.50
6948;DHT22;3513;47.664;9.162;2023-04-06T15:12:51;15.00;30.00
6948;DHT22;3513;47.664;9.162;2023-04-06T15:15:17;15.20;30.00
6948;DHT22;3513;47.664;9.162;2023-04-06T15:17:42;15.30;29.70
6948;DHT22;3513;47.664;9.162;2023-04-06T15:20:08;15.30;29.90
6948;DHT22;3513;47.664;9.162;2023-04-06T15:22:34;15.50;29.10
6948;DHT22;3513;47.664;9.162;2023-04-06T15:25:00;15.60;29.10
6948;DHT22;3513;47.664;9.162;2023-04-06T15:27:26;15.90;29.50
6948;DHT22;3513;47.664;9.162;2023-04-06T15:29:51;16.00;29.00
6948;DHT22;3513;47.664;9.162;2023-04-06T15:32:17;16.20;29.40
6948;DHT22;3513;47.664;9.162;2023-04-06T15:34:42;16.40;29.50
6948;DHT22;3513;47.664;9.162;2023-04-06T15:37:08;16.50;29.90
6948;DHT22;3513;47.664;9.162;2023-04-06T15:39:34;16.60;29.80
6948;DHT22;3513;47.664;9.162;2023-04-06T15:42:01;16.50;29.30
6948;DHT22;3513;47.664;9.162;2023-04-06T15:44:27;16.20;29.40
6948;DHT22;3513;47.664;9.162;2023-04-06T15:46:52;15.70;30.30
6948;DHT22;3513;47.664;9.162;2023-04-06T15:49:19;15.50;29.70
6948;DHT22;3513;47.664;9.162;2023-04-06T15:51:50;15.20;29.20
6948;DHT22;3513;47.664;9.162;2023-04-06T15:54:16;15.20;28.80
6948;DHT22;3513;47.664;9.162;2023-04-06T15:56:42;15.00;29.20
6948;DHT22;3513;47.664;9.162;2023-04-06T15:59:08;14.90;29.00
6948;DHT22;3513;47.664;9.162;2023-04-06T16:01:34;14.70;28.90
6948;DHT22;3513;47.664;9.162;2023-04-06T16:04:00;14.50;29.00
6948;DHT22;3513;47.664;9.162;2023-04-06T16:06:25;14.40;29.60
6948;DHT22;3513;47.664;9.162;2023-04-06T16:08:52;14.40;29.80
6948;DHT22;3513;47.664;9.162;2023-04-06T16:11:17;14.30;29.90
6948;DHT22;3513;47.664;9.162;2023-04-06T16:13:43;14.40;30.50
6948;DHT22;3513;47.664;9.162;2023-04-06T16:16:10;14.60;30.10